createdAt,value
2023-05-14T00:00:40.555Z,96871.80
2023-05-14T00:04:27.619Z,96869.33
2023-05-14T00:08:15.300Z,96863.61
2023-05-14T00:11:42.694Z,96862.96
2023-05-14T00:15:03.299Z,96862.08
2023-05-14T00:18:25.334Z,96861.94
2023-05-14T00:25:54.308Z,96865.08
2023-05-14T00:29:24.156Z,96861.08
2023-05-14T00:32:41.264Z,96855.37
2023-05-14T00:36:28.422Z,96852.27
2023-05-14T00:40:19.314Z,96859.14
2023-05-14T00:43:33.687Z,96852.92
2023-05-14T00:47:23.319Z,96853.03
2023-05-14T00:51:16.279Z,96850.90
2023-05-14T00:55:08.281Z,96846.41
2023-05-14T00:58:29.286Z,96843.16
2023-05-14T01:02:02.957Z,96842.32
2023-05-14T01:06:05.303Z,96846.16
2023-05-14T01:09:21.657Z,96849.79
2023-05-14T01:12:56.318Z,96843.86
2023-05-14T01:19:53.288Z,96854.73
2023-05-14T01:23:22.294Z,96855.38
2023-05-14T01:26:58.326Z,96851.68
2023-05-14T01:30:56.255Z,96842.52
2023-05-14T01:33:55.472Z,96840.80
2023-05-14T01:36:23.847Z,96837.30
2023-05-14T01:39:21.331Z,96837.61
2023-05-14T01:43:20.332Z,96840.92
2023-05-14T01:47:21.334Z,96840.91
2023-05-14T01:51:04.253Z,96834.33
2023-05-14T01:54:16.315Z,96833.69
2023-05-14T01:57:49.244Z,96832.67
2023-05-14T02:01:20.371Z,96829.36
2023-05-14T02:04:38.273Z,96825.45
2023-05-14T02:07:53.347Z,96830.00
2023-05-14T02:11:39.641Z,96826.84
2023-05-14T02:15:12.333Z,96823.00
2023-05-14T02:19:03.332Z,96827.71
2023-05-14T02:22:49.307Z,96825.79
2023-05-14T02:26:14.277Z,96824.67
2023-05-14T02:29:58.308Z,96823.84
2023-05-14T02:33:22.251Z,96820.98
2023-05-14T02:36:49.314Z,96822.13
2023-05-14T02:40:42.335Z,96818.89
2023-05-14T02:44:22.296Z,96823.08
2023-05-14T02:48:18.293Z,96827.55
2023-05-14T02:52:26.318Z,96830.43
2023-05-14T02:56:27.366Z,96825.86
2023-05-14T03:00:22.462Z,96817.52
2023-05-14T03:03:11.544Z,96819.38
2023-05-14T03:05:39.918Z,96817.95
2023-05-14T03:08:07.847Z,96814.14
2023-05-14T03:11:11.637Z,96817.53
2023-05-14T03:14:34.349Z,96823.08
2023-05-14T03:18:16.399Z,96821.48
2023-05-14T03:22:05.306Z,96822.22
2023-05-14T03:25:14.160Z,96825.36
2023-05-14T03:28:36.306Z,96826.57
2023-05-14T03:32:30.321Z,96828.96
2023-05-14T03:36:26.850Z,96821.87
2023-05-14T03:40:21.869Z,96822.45
2023-05-14T03:44:19.354Z,96820.69
2023-05-14T03:51:53.311Z,96817.14
2023-05-14T03:55:37.332Z,96818.05
2023-05-14T03:59:26.268Z,96821.63
2023-05-14T04:06:48.299Z,96826.96
2023-05-14T04:10:57.342Z,96826.27
2023-05-14T04:15:01.292Z,96826.30
2023-05-14T04:18:59.376Z,96826.02
2023-05-14T04:22:58.265Z,96831.05
2023-05-14T04:26:59.355Z,96832.67
2023-05-14T04:30:38.338Z,96835.67
2023-05-14T04:34:28.310Z,96829.58
2023-05-14T04:38:32.324Z,96829.19
2023-05-14T04:42:47.299Z,96835.84
2023-05-14T04:46:51.334Z,96834.72
2023-05-14T04:50:23.477Z,96832.38
2023-05-14T04:54:15.323Z,96828.45
2023-05-14T04:58:01.321Z,96828.33
2023-05-14T05:02:12.257Z,96819.88
2023-05-14T05:05:43.313Z,96813.81
2023-05-14T05:09:20.281Z,96810.98
2023-05-14T05:13:32.322Z,96810.17
2023-05-14T05:20:26.333Z,96805.83
2023-05-14T05:24:04.373Z,96797.67
2023-05-14T05:28:09.311Z,96802.04
2023-05-14T05:31:20.382Z,96796.98
2023-05-14T05:34:57.313Z,96792.52
2023-05-14T05:38:49.286Z,96787.96
2023-05-14T05:43:13.338Z,96786.55
2023-05-14T05:46:42.286Z,96785.67
2023-05-14T05:50:21.572Z,96780.88
2023-05-14T05:54:12.319Z,96781.52
2023-05-14T06:01:27.354Z,96782.48
2023-05-14T06:05:14.390Z,96783.61
2023-05-14T06:08:27.332Z,96783.04
2023-05-14T06:11:50.277Z,96786.92
2023-05-14T06:15:38.335Z,96777.56
2023-05-14T06:18:47.282Z,96782.13
2023-05-14T06:22:14.308Z,96780.39
2023-05-14T06:26:25.281Z,96778.17
2023-05-14T06:29:28.647Z,96780.44
2023-05-14T06:33:14.628Z,96777.09
2023-05-14T06:36:38.513Z,96771.86
2023-05-14T06:40:19.317Z,96778.35
2023-05-14T06:44:32.310Z,96779.45
2023-05-14T06:48:38.349Z,96773.98
2023-05-14T06:52:24.688Z,96772.88
2023-05-14T06:56:33.422Z,96770.11
2023-05-14T07:00:06.914Z,96766.83
2023-05-14T07:03:09.326Z,96758.88
2023-05-14T07:06:58.419Z,96758.59
2023-05-14T07:09:26.663Z,96756.40
2023-05-14T07:11:55.632Z,96753.45
2023-05-14T07:14:43.417Z,96752.09
2023-05-14T07:17:15.239Z,96750.30
2023-05-14T07:19:43.751Z,96745.83
2023-05-14T07:22:11.969Z,96741.80
2023-05-14T07:24:40.107Z,96740.18
2023-05-14T07:27:09.051Z,96738.14
2023-05-14T07:29:37.309Z,96740.49
2023-05-14T07:32:05.662Z,96739.89
2023-05-14T07:34:34.473Z,96744.45
2023-05-14T07:37:03.481Z,96741.52
2023-05-14T07:39:38.851Z,96742.32
2023-05-14T07:42:07.230Z,96740.65
2023-05-14T07:44:37.546Z,96743.98
2023-05-14T07:47:07.671Z,96746.88
2023-05-14T07:49:37.244Z,96751.59
2023-05-14T07:52:05.668Z,96745.55
2023-05-14T07:54:36.725Z,96745.92
2023-05-14T07:57:07.497Z,96745.23
2023-05-14T07:59:36.147Z,96744.55
2023-05-14T08:02:04.419Z,96741.10
2023-05-14T08:04:32.904Z,96738.41
2023-05-14T08:07:09.727Z,96737.70
2023-05-14T08:09:37.873Z,96735.85
2023-05-14T08:12:10.055Z,96729.95
2023-05-14T08:14:37.965Z,96728.54
2023-05-14T08:17:06.477Z,96728.39
2023-05-14T08:19:35.158Z,96718.45
2023-05-14T08:22:05.588Z,96716.45
2023-05-14T08:24:38.476Z,96714.73
2023-05-14T08:27:07.363Z,96706.81
2023-05-14T08:29:37.922Z,96702.48
2023-05-14T08:32:22.114Z,96695.83
2023-05-14T08:34:52.367Z,96697.58
2023-05-14T08:37:28.534Z,96701.38
2023-05-14T08:39:57.181Z,96701.63
2023-05-14T08:42:35.189Z,96701.25
2023-05-14T08:45:05.804Z,96706.02
2023-05-14T08:47:35.303Z,96701.34
2023-05-14T08:50:07.542Z,96695.70
2023-05-14T08:52:44.532Z,96692.41
2023-05-14T08:55:12.999Z,96686.98
2023-05-14T08:57:41.183Z,96682.41
2023-05-14T09:00:13.452Z,96680.84
2023-05-14T09:02:42.798Z,96680.13
2023-05-14T09:05:11.119Z,96684.44
2023-05-14T09:07:42.891Z,96685.77
2023-05-14T09:10:11.488Z,96674.50
2023-05-14T09:12:40.105Z,96670.52
2023-05-14T09:15:08.638Z,96672.14
2023-05-14T09:17:51.667Z,96667.66
2023-05-14T09:20:37.348Z,96665.83
2023-05-14T09:23:27.164Z,96665.70
2023-05-14T09:25:55.030Z,96662.66
2023-05-14T09:29:10.572Z,96658.83
2023-05-14T09:32:38.760Z,96654.08
2023-05-14T09:36:01.833Z,96658.77
2023-05-14T09:39:09.813Z,96658.30
2023-05-14T09:42:23.393Z,96666.04
2023-05-14T09:46:11.672Z,96662.98
2023-05-14T09:49:40.502Z,96653.66
2023-05-14T09:52:56.076Z,96650.80
2023-05-14T09:56:24.775Z,96653.06
2023-05-14T09:59:42.347Z,96655.14
2023-05-14T10:03:06.465Z,96648.36
2023-05-14T10:06:37.359Z,96641.45
2023-05-14T10:09:16.937Z,96636.39
2023-05-14T10:12:46.326Z,96631.13
2023-05-14T10:16:26.992Z,96627.02
2023-05-14T10:19:55.176Z,96616.83
2023-05-14T10:23:24.693Z,96608.49
2023-05-14T10:26:14.964Z,96604.83
2023-05-14T10:29:24.110Z,96602.46
2023-05-14T10:32:29.649Z,96595.55
2023-05-14T10:35:01.703Z,96592.28
2023-05-14T10:37:31.094Z,96593.23
2023-05-14T10:40:06.220Z,96590.59
2023-05-14T10:43:14.212Z,96592.59
2023-05-14T10:45:46.049Z,96588.41
2023-05-14T10:48:14.628Z,96582.20
2023-05-14T10:50:43.781Z,96580.58
2023-05-14T10:53:14.019Z,96577.36
2023-05-14T10:55:47.344Z,96575.34
2023-05-14T10:58:16.831Z,96572.35
2023-05-14T11:00:49.913Z,96567.15
2023-05-14T11:03:18.826Z,96561.02
2023-05-14T11:05:51.274Z,96557.73
2023-05-14T11:08:23.954Z,96561.36
2023-05-14T11:11:11.560Z,96560.23
2023-05-14T11:13:39.892Z,96556.03
2023-05-14T11:16:21.563Z,96551.80
2023-05-14T11:19:07.752Z,96554.02
2023-05-14T11:21:37.923Z,96551.23
2023-05-14T11:24:07.370Z,96552.56
2023-05-14T11:26:36.587Z,96547.23
2023-05-14T11:29:08.626Z,96548.36
2023-05-14T11:31:36.873Z,96541.15
2023-05-14T11:34:07.114Z,96536.30
2023-05-14T11:36:36.747Z,96536.11
2023-05-14T11:39:06.016Z,96538.70
2023-05-14T11:41:34.005Z,96537.84
2023-05-14T11:44:03.289Z,96535.55
2023-05-14T11:46:31.670Z,96531.58
2023-05-14T11:48:59.469Z,96530.66
2023-05-14T11:51:27.340Z,96527.45
2023-05-14T11:53:55.343Z,96524.67
2023-05-14T11:56:23.493Z,96526.89
2023-05-14T11:58:57.589Z,96525.59
2023-05-14T12:01:25.681Z,96526.19
2023-05-14T12:03:53.625Z,96525.66
2023-05-14T12:06:21.820Z,96520.54
2023-05-14T12:08:49.943Z,96518.48
2023-05-14T12:11:31.819Z,96516.65
2023-05-14T12:14:00.644Z,96514.78
2023-05-14T12:16:32.728Z,96513.80
2023-05-14T12:19:05.855Z,96512.35
2023-05-14T12:21:36.604Z,96513.23
2023-05-14T12:24:20.184Z,96512.65
2023-05-14T12:26:51.824Z,96511.67
2023-05-14T12:29:22.168Z,96513.60
2023-05-14T12:31:51.165Z,96512.55
2023-05-14T12:34:21.126Z,96513.83
2023-05-14T12:36:52.911Z,96512.30
2023-05-14T12:39:21.083Z,96512.44
2023-05-14T12:41:49.697Z,96512.61
2023-05-14T12:44:18.823Z,96508.13
2023-05-14T12:46:49.933Z,96507.73
2023-05-14T12:49:21.496Z,96502.54
2023-05-14T12:52:22.705Z,96495.53
2023-05-14T12:55:00.701Z,96496.70
2023-05-14T12:57:30.629Z,96505.60
2023-05-14T12:59:58.606Z,96510.34
2023-05-14T13:02:29.098Z,96512.08
2023-05-14T13:05:07.262Z,96511.95
2023-05-14T13:07:37.317Z,96512.19
2023-05-14T13:10:23.548Z,96509.29
2023-05-14T13:12:54.120Z,96506.91
2023-05-14T13:15:27.433Z,96509.00
2023-05-14T13:18:15.110Z,96512.23
2023-05-14T13:20:59.744Z,96501.34
2023-05-14T13:23:33.959Z,96492.19
2023-05-14T13:26:05.873Z,96489.81
2023-05-14T13:29:06.352Z,96490.76
2023-05-14T13:31:53.749Z,96481.96
2023-05-14T13:34:37.716Z,96473.64
2023-05-14T13:37:45.397Z,96471.20
2023-05-14T13:40:28.436Z,96459.05
2023-05-14T13:43:07.798Z,96453.84
2023-05-14T13:45:53.438Z,96453.55
2023-05-14T13:48:29.591Z,96450.23
2023-05-14T13:54:27.489Z,96433.48
2023-05-14T13:57:14.530Z,96430.04
2023-05-14T13:59:47.982Z,96422.45
2023-05-14T14:02:23.047Z,96414.77
2023-05-14T14:04:51.667Z,96414.67
2023-05-14T14:07:27.006Z,96410.29
2023-05-14T14:10:41.356Z,96397.86
2023-05-14T14:13:13.571Z,96384.45
2023-05-14T14:15:44.187Z,96381.20
2023-05-14T14:18:12.852Z,96383.65
2023-05-14T14:20:59.534Z,96380.13
2023-05-14T14:23:44.161Z,96380.55
2023-05-14T14:26:12.667Z,96380.27
2023-05-14T14:28:55.388Z,96365.66
2023-05-14T14:32:22.343Z,96363.19
2023-05-14T14:35:03.660Z,96367.36
2023-05-14T14:37:33.759Z,96369.52
2023-05-14T14:40:07.489Z,96371.80
2023-05-14T14:42:37.549Z,96371.32
2023-05-14T14:45:14.097Z,96372.55
2023-05-14T14:47:46.028Z,96372.52
2023-05-14T14:50:44.384Z,96374.46
2023-05-14T14:53:14.192Z,96375.48
2023-05-14T14:55:42.249Z,96377.51
2023-05-14T14:58:14.330Z,96378.98
2023-05-14T15:00:43.528Z,96380.48
2023-05-14T15:03:19.019Z,96383.38
2023-05-14T15:05:48.337Z,96384.09
2023-05-14T15:08:32.569Z,96383.27
2023-05-14T15:11:10.325Z,96372.98
2023-05-14T15:13:40.138Z,96362.33
2023-05-14T15:16:16.043Z,96346.10
2023-05-14T15:19:17.462Z,96330.56
2023-05-14T15:21:45.884Z,96330.10
2023-05-14T15:24:13.907Z,96329.19
2023-05-14T15:26:57.789Z,96327.05
2023-05-14T15:30:25.329Z,96336.83
2023-05-14T15:33:43.866Z,96338.59
2023-05-14T15:36:39.610Z,96334.02
2023-05-14T15:40:10.789Z,96328.13
2023-05-14T15:43:59.609Z,96312.59
2023-05-14T15:47:10.278Z,96308.19
2023-05-14T15:50:57.644Z,96324.16
2023-05-14T15:53:47.121Z,96322.78
2023-05-14T15:57:28.860Z,96319.63
2023-05-14T16:00:25.116Z,96304.55
2023-05-14T16:03:56.208Z,96292.77
2023-05-14T16:07:16.578Z,96293.20
2023-05-14T16:10:43.314Z,96298.23
2023-05-14T16:14:12.316Z,96311.08
2023-05-14T16:17:41.184Z,96313.42
2023-05-14T16:21:14.279Z,96312.89
2023-05-14T16:24:44.702Z,96312.96
2023-05-14T16:27:38.478Z,96307.59
2023-05-14T16:31:13.296Z,96307.27
2023-05-14T16:34:30.749Z,96304.44
2023-05-14T16:37:59.569Z,96307.49
2023-05-14T16:40:52.753Z,96307.45
2023-05-14T16:43:52.793Z,96305.38
2023-05-14T16:47:02.162Z,96317.89
2023-05-14T16:49:30.134Z,96318.38
2023-05-14T16:51:58.312Z,96320.34
2023-05-14T16:54:26.570Z,96323.15
2023-05-14T16:56:56.069Z,96323.85
2023-05-14T16:59:25.080Z,96315.77
2023-05-14T17:01:55.716Z,96310.08
2023-05-14T17:04:26.597Z,96312.20
2023-05-14T17:06:54.883Z,96311.08
2023-05-14T17:09:22.696Z,96306.55
2023-05-14T17:11:50.866Z,96302.70
2023-05-14T17:14:18.760Z,96302.61
2023-05-14T17:16:46.818Z,96297.87
2023-05-14T17:19:14.856Z,96303.98
2023-05-14T17:21:42.840Z,96305.63
2023-05-14T17:24:10.699Z,96306.75
2023-05-14T17:26:38.576Z,96300.27
2023-05-14T17:29:06.415Z,96290.45
2023-05-14T17:31:34.400Z,96283.74
2023-05-14T17:34:02.274Z,96283.23
2023-05-14T17:36:31.585Z,96281.40
2023-05-14T17:38:59.421Z,96277.52
2023-05-14T17:41:27.282Z,96278.65
2023-05-14T17:43:55.204Z,96281.41
2023-05-14T17:46:23.370Z,96273.49
2023-05-14T17:48:51.324Z,96263.81
2023-05-14T17:51:19.250Z,96264.79
2023-05-14T17:53:47.303Z,96274.75
2023-05-14T17:56:17.556Z,96286.23
2023-05-14T17:58:46.198Z,96290.52
2023-05-14T18:01:14.182Z,96295.04
2023-05-14T18:03:42.356Z,96293.36
2023-05-14T18:06:10.574Z,96294.27
2023-05-14T18:08:38.397Z,96297.29
2023-05-14T18:11:06.284Z,96289.86
2023-05-14T18:13:34.107Z,96293.46
2023-05-14T18:16:02.205Z,96293.52
2023-05-14T18:18:31.612Z,96293.15
2023-05-14T18:20:59.526Z,96293.42
2023-05-14T18:23:27.348Z,96291.85
2023-05-14T18:25:57.529Z,96289.73
2023-05-14T18:28:26.442Z,96284.16
2023-05-14T18:30:54.317Z,96291.55
2023-05-14T18:33:22.206Z,96291.52
2023-05-14T18:35:50.124Z,96293.15
2023-05-14T18:38:19.325Z,96297.44
2023-05-14T18:40:49.452Z,96298.83
2023-05-14T18:43:18.711Z,96301.63
2023-05-14T18:45:47.430Z,96303.77
2023-05-14T18:48:16.380Z,96299.59
2023-05-14T18:50:44.294Z,96292.23
2023-05-14T18:53:12.122Z,96282.77
2023-05-14T18:55:40.148Z,96276.02
2023-05-14T18:58:08.282Z,96276.20
2023-05-14T19:00:36.130Z,96277.27
2023-05-14T19:03:04.090Z,96282.38
2023-05-14T19:05:32.216Z,96281.34
2023-05-14T19:08:00.886Z,96283.63
2023-05-14T19:10:28.856Z,96279.83
2023-05-14T19:12:57.534Z,96275.92
2023-05-14T19:15:25.892Z,96271.75
2023-05-14T19:17:54.172Z,96267.48
2023-05-14T19:20:22.167Z,96266.13
2023-05-14T19:22:50.339Z,96260.39
2023-05-14T19:25:18.217Z,96260.56
2023-05-14T19:27:50.498Z,96259.41
2023-05-14T19:30:19.896Z,96261.21
2023-05-14T19:32:47.758Z,96262.27
2023-05-14T19:35:15.648Z,96261.70
2023-05-14T19:37:43.497Z,96258.45
2023-05-14T19:40:11.455Z,96256.02
2023-05-14T19:42:39.283Z,96245.97
2023-05-14T19:45:07.485Z,96242.17
2023-05-14T19:47:35.334Z,96244.57
2023-05-14T19:50:03.384Z,96245.32
2023-05-14T19:52:31.342Z,96249.61
2023-05-14T19:54:59.171Z,96253.30
2023-05-14T19:57:27.055Z,96257.59
2023-05-14T19:59:54.882Z,96249.89
2023-05-14T20:02:22.864Z,96243.35
2023-05-14T20:04:51.591Z,96230.92
2023-05-14T20:07:20.156Z,96224.70
2023-05-14T20:09:48.042Z,96228.14
2023-05-14T20:12:16.734Z,96225.98
2023-05-14T20:14:44.850Z,96220.81
2023-05-14T20:17:12.964Z,96219.52
2023-05-14T20:19:41.239Z,96214.04
2023-05-14T20:22:09.260Z,96206.98
2023-05-14T20:24:37.134Z,96204.30
2023-05-14T20:27:07.530Z,96202.48
2023-05-14T20:29:35.594Z,96198.01
2023-05-14T20:32:03.539Z,96194.46
2023-05-14T20:34:31.548Z,96190.63
2023-05-14T20:36:59.382Z,96191.84
2023-05-14T20:39:27.158Z,96191.63
2023-05-14T20:41:55.029Z,96191.59
2023-05-14T20:44:22.900Z,96201.13
2023-05-14T20:46:51.132Z,96201.23
2023-05-14T20:49:19.061Z,96195.33
2023-05-14T20:51:46.909Z,96192.13
2023-05-14T20:54:14.791Z,96176.54
2023-05-14T20:56:42.718Z,96171.17
2023-05-14T20:59:10.571Z,96174.98
2023-05-14T21:01:38.493Z,96173.45
2023-05-14T21:04:07.022Z,96182.16
2023-05-14T21:06:35.312Z,96183.47
2023-05-14T21:09:03.149Z,96172.67
2023-05-14T21:11:31.057Z,96170.27
2023-05-14T21:13:58.867Z,96175.37
2023-05-14T21:16:26.911Z,96180.02
2023-05-14T21:18:54.827Z,96185.81
2023-05-14T21:21:23.085Z,96180.02
2023-05-14T21:23:50.931Z,96171.85
2023-05-14T21:26:21.579Z,96164.54
2023-05-14T21:28:49.450Z,96158.27
2023-05-14T21:31:17.398Z,96145.95
2023-05-14T21:33:45.324Z,96146.89
2023-05-14T21:36:13.419Z,96164.59
2023-05-14T21:38:41.452Z,96183.52
2023-05-14T21:41:09.329Z,96182.35
2023-05-14T21:43:37.234Z,96185.58
2023-05-14T21:46:05.161Z,96193.77
2023-05-14T21:48:33.655Z,96184.76
2023-05-14T21:51:02.019Z,96166.11
2023-05-14T21:53:29.847Z,96157.48
2023-05-14T21:55:57.798Z,96160.42
2023-05-14T21:58:26.680Z,96165.95
2023-05-14T22:00:54.564Z,96169.59
2023-05-14T22:03:22.637Z,96170.05
2023-05-14T22:05:51.539Z,96158.42
2023-05-14T22:08:19.338Z,96145.46
2023-05-14T22:10:47.507Z,96147.27
2023-05-14T22:13:17.581Z,96151.33
2023-05-14T22:15:48.449Z,96154.60
2023-05-14T22:18:18.185Z,96157.81
2023-05-14T22:20:47.963Z,96154.81
2023-05-14T22:23:15.977Z,96153.28
2023-05-14T22:25:43.769Z,96148.17
2023-05-14T22:28:11.677Z,96150.45
2023-05-14T22:30:39.540Z,96153.29
2023-05-14T22:33:07.357Z,96153.13
2023-05-14T22:35:35.374Z,96156.52
2023-05-14T22:38:03.206Z,96157.14
2023-05-14T22:40:31.045Z,96152.92
2023-05-14T22:42:58.926Z,96139.86
2023-05-14T22:45:27.028Z,96136.54
2023-05-14T22:47:55.006Z,96132.23
2023-05-14T22:50:22.825Z,96143.50
2023-05-14T22:52:54.497Z,96143.23
2023-05-14T22:55:22.401Z,96139.71
2023-05-14T22:57:50.371Z,96137.04
2023-05-14T23:00:18.710Z,96132.98
2023-05-14T23:02:46.776Z,96128.92
2023-05-14T23:05:15.006Z,96118.13
2023-05-14T23:07:43.079Z,96115.06
2023-05-14T23:10:11.400Z,96111.65
2023-05-14T23:12:39.276Z,96104.55
2023-05-14T23:15:07.608Z,96097.89
2023-05-14T23:17:35.492Z,96089.42
2023-05-14T23:20:05.716Z,96084.73
2023-05-14T23:22:33.603Z,96085.96
2023-05-14T23:25:01.512Z,96077.33
2023-05-14T23:27:29.447Z,96072.70
2023-05-14T23:29:57.349Z,96073.34
2023-05-14T23:32:25.286Z,96077.66
2023-05-14T23:34:53.171Z,96075.25
2023-05-14T23:37:21.638Z,96068.47
2023-05-14T23:39:49.582Z,96066.57
2023-05-14T23:42:17.543Z,96060.09
2023-05-14T23:44:45.450Z,96054.46
2023-05-14T23:47:13.521Z,96052.46
2023-05-14T23:50:27.966Z,96055.84
2023-05-14T23:53:47.432Z,96052.63
2023-05-14T23:57:22.376Z,96055.89
